sensor_id;sensor_type;location;lat;lon;timestamp;P1;durP1;ratioP1;P2;durP2;ratioP2
39426;SDS011;25938;48.470;1.486;2023-07-31T00:02:21;2.35;;;1.38;;
39426;SDS011;25938;48.470;1.486;2023-07-31T00:04:47;3.58;;;1.02;;
39426;SDS011;25938;48.470;1.486;2023-07-31T00:07:14;1.48;;;0.68;;
39426;SDS011;25938;48.470;1.486;2023-07-31T00:09:40;4.50;;;1.15;;
39426;SDS011;25938;48.470;1.486;2023-07-31T00:12:06;3.97;;;1.42;;
39426;SDS011;25938;48.470;1.486;2023-07-31T00:14:32;3.55;;;1.08;;
39426;SDS011;25938;48.470;1.486;2023-07-31T00:16:58;4.90;;;0.95;;
39426;SDS011;25938;48.470;1.486;2023-07-31T00:19:24;1.92;;;1.13;;
39426;SDS011;25938;48.470;1.486;2023-07-31T00:21:50;8.70;;;1.42;;
39426;SDS011;25938;48.470;1.486;2023-07-31T00:24:16;3.35;;;1.15;;
39426;SDS011;25938;48.470;1.486;2023-07-31T00:26:42;3.08;;;1.48;;
39426;SDS011;25938;48.470;1.486;2023-07-31T00:29:08;6.80;;;1.40;;
39426;SDS011;25938;48.470;1.486;2023-07-31T00:31:34;2.60;;;1.27;;
39426;SDS011;25938;48.470;1.486;2023-07-31T00:34:00;5.30;;;1.83;;
39426;SDS011;25938;48.470;1.486;2023-07-31T00:36:26;3.75;;;0.98;;
39426;SDS011;25938;48.470;1.486;2023-07-31T00:38:52;3.17;;;0.88;;
39426;SDS011;25938;48.470;1.486;2023-07-31T00:41:18;2.30;;;0.95;;
39426;SDS011;25938;48.470;1.486;2023-07-31T00:43:44;3.90;;;0.88;;
39426;SDS011;25938;48.470;1.486;2023-07-31T00:46:10;2.78;;;1.35;;
39426;SDS011;25938;48.470;1.486;2023-07-31T00:48:36;2.15;;;1.00;;
39426;SDS011;25938;48.470;1.486;2023-07-31T00:51:03;5.22;;;1.23;;
39426;SDS011;25938;48.470;1.486;2023-07-31T00:53:29;3.92;;;1.33;;
39426;SDS011;25938;48.470;1.486;2023-07-31T00:55:55;3.72;;;1.30;;
39426;SDS011;25938;48.470;1.486;2023-07-31T00:58:21;2.97;;;1.15;;
39426;SDS011;25938;48.470;1.486;2023-07-31T01:00:47;3.65;;;1.05;;
39426;SDS011;25938;48.470;1.486;2023-07-31T01:03:15;2.88;;;1.15;;
39426;SDS011;25938;48.470;1.486;2023-07-31T01:10:59;2.22;;;0.85;;
39426;SDS011;25938;48.470;1.486;2023-07-31T01:13:26;3.63;;;1.65;;
39426;SDS011;25938;48.470;1.486;2023-07-31T01:15:52;3.83;;;1.10;;
39426;SDS011;25938;48.470;1.486;2023-07-31T01:18:18;4.50;;;1.42;;
39426;SDS011;25938;48.470;1.486;2023-07-31T01:20:44;6.68;;;1.60;;
39426;SDS011;25938;48.470;1.486;2023-07-31T01:23:23;2.65;;;1.05;;
39426;SDS011;25938;48.470;1.486;2023-07-31T01:26:03;4.78;;;1.10;;
39426;SDS011;25938;48.470;1.486;2023-07-31T01:28:45;5.05;;;1.77;;
39426;SDS011;25938;48.470;1.486;2023-07-31T01:31:14;2.50;;;1.15;;
39426;SDS011;25938;48.470;1.486;2023-07-31T01:33:42;4.50;;;1.40;;
39426;SDS011;25938;48.470;1.486;2023-07-31T01:36:08;2.67;;;0.88;;
39426;SDS011;25938;48.470;1.486;2023-07-31T01:38:34;3.20;;;1.40;;
39426;SDS011;25938;48.470;1.486;2023-07-31T01:41:00;4.65;;;1.33;;
39426;SDS011;25938;48.470;1.486;2023-07-31T01:43:26;4.90;;;1.30;;
39426;SDS011;25938;48.470;1.486;2023-07-31T01:45:52;3.30;;;1.50;;
39426;SDS011;25938;48.470;1.486;2023-07-31T01:48:18;6.55;;;1.38;;
39426;SDS011;25938;48.470;1.486;2023-07-31T01:50:44;2.10;;;0.98;;
39426;SDS011;25938;48.470;1.486;2023-07-31T01:53:10;4.68;;;1.17;;
39426;SDS011;25938;48.470;1.486;2023-07-31T01:55:37;3.15;;;1.15;;
39426;SDS011;25938;48.470;1.486;2023-07-31T01:58:03;3.15;;;0.82;;
39426;SDS011;25938;48.470;1.486;2023-07-31T02:00:29;3.30;;;1.17;;
39426;SDS011;25938;48.470;1.486;2023-07-31T02:02:55;3.60;;;1.58;;
39426;SDS011;25938;48.470;1.486;2023-07-31T02:05:21;2.78;;;0.88;;
39426;SDS011;25938;48.470;1.486;2023-07-31T02:07:47;1.95;;;0.90;;
39426;SDS011;25938;48.470;1.486;2023-07-31T02:10:13;3.47;;;0.85;;
39426;SDS011;25938;48.470;1.486;2023-07-31T02:12:39;2.15;;;0.85;;
39426;SDS011;25938;48.470;1.486;2023-07-31T02:15:05;3.72;;;0.98;;
39426;SDS011;25938;48.470;1.486;2023-07-31T02:17:31;1.08;;;0.65;;
39426;SDS011;25938;48.470;1.486;2023-07-31T02:19:57;3.78;;;0.93;;
39426;SDS011;25938;48.470;1.486;2023-07-31T02:22:23;1.00;;;0.47;;
39426;SDS011;25938;48.470;1.486;2023-07-31T02:24:49;2.45;;;1.10;;
39426;SDS011;25938;48.470;1.486;2023-07-31T02:27:15;3.38;;;1.52;;
39426;SDS011;25938;48.470;1.486;2023-07-31T02:29:41;3.70;;;0.90;;
39426;SDS011;25938;48.470;1.486;2023-07-31T02:34:37;3.35;;;1.00;;
39426;SDS011;25938;48.470;1.486;2023-07-31T02:37:03;2.08;;;0.82;;
39426;SDS011;25938;48.470;1.486;2023-07-31T02:39:30;3.80;;;1.08;;
39426;SDS011;25938;48.470;1.486;2023-07-31T02:41:55;4.95;;;1.17;;
39426;SDS011;25938;48.470;1.486;2023-07-31T02:44:22;3.42;;;1.00;;
39426;SDS011;25938;48.470;1.486;2023-07-31T02:46:47;2.63;;;1.25;;
39426;SDS011;25938;48.470;1.486;2023-07-31T02:49:14;3.45;;;0.98;;
39426;SDS011;25938;48.470;1.486;2023-07-31T02:51:40;4.50;;;1.60;;
39426;SDS011;25938;48.470;1.486;2023-07-31T02:54:06;3.75;;;1.58;;
39426;SDS011;25938;48.470;1.486;2023-07-31T02:56:32;1.85;;;0.98;;
39426;SDS011;25938;48.470;1.486;2023-07-31T02:58:58;3.05;;;1.17;;
39426;SDS011;25938;48.470;1.486;2023-07-31T03:01:24;5.55;;;2.00;;
39426;SDS011;25938;48.470;1.486;2023-07-31T03:03:50;2.50;;;0.93;;
39426;SDS011;25938;48.470;1.486;2023-07-31T03:06:16;4.80;;;1.60;;
39426;SDS011;25938;48.470;1.486;2023-07-31T03:08:42;3.30;;;1.27;;
39426;SDS011;25938;48.470;1.486;2023-07-31T03:11:08;5.10;;;1.70;;
39426;SDS011;25938;48.470;1.486;2023-07-31T03:13:34;7.97;;;2.03;;
39426;SDS011;25938;48.470;1.486;2023-07-31T03:16:00;4.13;;;1.38;;
39426;SDS011;25938;48.470;1.486;2023-07-31T03:18:26;6.05;;;1.60;;
39426;SDS011;25938;48.470;1.486;2023-07-31T03:20:52;4.80;;;2.83;;
39426;SDS011;25938;48.470;1.486;2023-07-31T03:23:18;3.85;;;1.35;;
39426;SDS011;25938;48.470;1.486;2023-07-31T03:26:00;3.05;;;1.73;;
39426;SDS011;25938;48.470;1.486;2023-07-31T03:28:28;4.30;;;1.90;;
39426;SDS011;25938;48.470;1.486;2023-07-31T03:30:54;3.13;;;1.90;;
39426;SDS011;25938;48.470;1.486;2023-07-31T03:33:20;3.90;;;1.88;;
39426;SDS011;25938;48.470;1.486;2023-07-31T03:35:46;5.50;;;1.80;;
39426;SDS011;25938;48.470;1.486;2023-07-31T03:38:12;6.07;;;2.17;;
39426;SDS011;25938;48.470;1.486;2023-07-31T03:40:38;4.72;;;2.20;;
39426;SDS011;25938;48.470;1.486;2023-07-31T03:43:04;4.47;;;2.30;;
39426;SDS011;25938;48.470;1.486;2023-07-31T03:45:30;5.13;;;2.30;;
39426;SDS011;25938;48.470;1.486;2023-07-31T03:47:56;8.45;;;2.38;;
39426;SDS011;25938;48.470;1.486;2023-07-31T03:50:22;6.13;;;2.75;;
39426;SDS011;25938;48.470;1.486;2023-07-31T03:52:50;6.32;;;2.78;;
39426;SDS011;25938;48.470;1.486;2023-07-31T03:55:16;6.88;;;2.45;;
39426;SDS011;25938;48.470;1.486;2023-07-31T03:57:42;4.45;;;2.10;;
39426;SDS011;25938;48.470;1.486;2023-07-31T04:00:09;5.43;;;2.67;;
39426;SDS011;25938;48.470;1.486;2023-07-31T04:02:35;6.40;;;2.50;;
39426;SDS011;25938;48.470;1.486;2023-07-31T04:05:01;4.15;;;1.75;;
39426;SDS011;25938;48.470;1.486;2023-07-31T04:07:27;8.82;;;3.28;;
39426;SDS011;25938;48.470;1.486;2023-07-31T04:09:53;8.88;;;3.05;;
39426;SDS011;25938;48.470;1.486;2023-07-31T04:12:19;5.25;;;2.88;;
39426;SDS011;25938;48.470;1.486;2023-07-31T04:14:45;6.13;;;2.63;;
39426;SDS011;25938;48.470;1.486;2023-07-31T04:17:11;6.85;;;2.40;;
39426;SDS011;25938;48.470;1.486;2023-07-31T04:19:37;7.18;;;2.63;;
39426;SDS011;25938;48.470;1.486;2023-07-31T04:22:03;7.40;;;2.30;;
39426;SDS011;25938;48.470;1.486;2023-07-31T04:24:29;6.07;;;3.05;;
39426;SDS011;25938;48.470;1.486;2023-07-31T04:26:55;5.82;;;2.50;;
39426;SDS011;25938;48.470;1.486;2023-07-31T04:29:21;9.55;;;3.53;;
39426;SDS011;25938;48.470;1.486;2023-07-31T04:31:49;7.28;;;2.65;;
39426;SDS011;25938;48.470;1.486;2023-07-31T04:34:15;4.70;;;2.10;;
39426;SDS011;25938;48.470;1.486;2023-07-31T04:36:41;8.32;;;3.22;;
39426;SDS011;25938;48.470;1.486;2023-07-31T04:39:07;8.32;;;2.20;;
39426;SDS011;25938;48.470;1.486;2023-07-31T04:41:33;5.75;;;3.17;;
39426;SDS011;25938;48.470;1.486;2023-07-31T04:43:59;6.13;;;2.60;;
39426;SDS011;25938;48.470;1.486;2023-07-31T04:46:25;9.30;;;3.25;;
39426;SDS011;25938;48.470;1.486;2023-07-31T04:48:51;6.80;;;2.25;;
39426;SDS011;25938;48.470;1.486;2023-07-31T04:51:17;7.47;;;2.97;;
39426;SDS011;25938;48.470;1.486;2023-07-31T04:53:43;6.88;;;3.22;;
39426;SDS011;25938;48.470;1.486;2023-07-31T04:56:09;9.20;;;3.55;;
39426;SDS011;25938;48.470;1.486;2023-07-31T04:58:35;6.18;;;2.53;;
39426;SDS011;25938;48.470;1.486;2023-07-31T05:01:00;7.15;;;2.70;;
39426;SDS011;25938;48.470;1.486;2023-07-31T05:03:26;7.80;;;3.53;;
39426;SDS011;25938;48.470;1.486;2023-07-31T05:05:52;10.10;;;5.68;;
39426;SDS011;25938;48.470;1.486;2023-07-31T05:08:18;7.72;;;2.65;;
39426;SDS011;25938;48.470;1.486;2023-07-31T05:10:44;6.50;;;3.03;;
39426;SDS011;25938;48.470;1.486;2023-07-31T05:13:10;8.00;;;2.95;;
39426;SDS011;25938;48.470;1.486;2023-07-31T05:15:36;6.03;;;3.00;;
39426;SDS011;25938;48.470;1.486;2023-07-31T05:18:02;5.78;;;2.45;;
39426;SDS011;25938;48.470;1.486;2023-07-31T05:20:28;5.43;;;2.53;;
39426;SDS011;25938;48.470;1.486;2023-07-31T05:22:54;9.18;;;2.60;;
39426;SDS011;25938;48.470;1.486;2023-07-31T05:25:20;7.68;;;2.40;;
39426;SDS011;25938;48.470;1.486;2023-07-31T05:27:46;5.28;;;2.10;;
39426;SDS011;25938;48.470;1.486;2023-07-31T05:30:12;5.38;;;2.65;;
39426;SDS011;25938;48.470;1.486;2023-07-31T05:32:38;5.97;;;3.38;;
39426;SDS011;25938;48.470;1.486;2023-07-31T05:35:04;7.57;;;2.83;;
39426;SDS011;25938;48.470;1.486;2023-07-31T05:37:30;8.30;;;3.10;;
39426;SDS011;25938;48.470;1.486;2023-07-31T05:39:57;7.93;;;3.33;;
39426;SDS011;25938;48.470;1.486;2023-07-31T05:42:22;7.85;;;3.33;;
39426;SDS011;25938;48.470;1.486;2023-07-31T05:44:48;11.07;;;3.72;;
39426;SDS011;25938;48.470;1.486;2023-07-31T05:47:14;5.80;;;3.20;;
39426;SDS011;25938;48.470;1.486;2023-07-31T05:49:40;6.75;;;3.03;;
39426;SDS011;25938;48.470;1.486;2023-07-31T05:52:07;8.88;;;2.50;;
39426;SDS011;25938;48.470;1.486;2023-07-31T05:54:33;7.47;;;2.97;;
39426;SDS011;25938;48.470;1.486;2023-07-31T05:56:59;11.75;;;3.03;;
39426;SDS011;25938;48.470;1.486;2023-07-31T05:59:25;7.28;;;3.45;;
39426;SDS011;25938;48.470;1.486;2023-07-31T06:01:51;4.45;;;2.35;;
39426;SDS011;25938;48.470;1.486;2023-07-31T06:04:17;5.72;;;2.67;;
39426;SDS011;25938;48.470;1.486;2023-07-31T06:06:43;6.80;;;2.45;;
39426;SDS011;25938;48.470;1.486;2023-07-31T06:09:09;5.40;;;2.38;;
39426;SDS011;25938;48.470;1.486;2023-07-31T06:11:35;6.47;;;3.25;;
39426;SDS011;25938;48.470;1.486;2023-07-31T06:14:00;6.68;;;3.00;;
39426;SDS011;25938;48.470;1.486;2023-07-31T06:16:26;6.82;;;3.13;;
39426;SDS011;25938;48.470;1.486;2023-07-31T06:18:52;6.78;;;2.88;;
39426;SDS011;25938;48.470;1.486;2023-07-31T06:21:18;8.60;;;3.35;;
39426;SDS011;25938;48.470;1.486;2023-07-31T06:23:44;12.20;;;3.08;;
39426;SDS011;25938;48.470;1.486;2023-07-31T06:26:10;7.10;;;2.63;;
39426;SDS011;25938;48.470;1.486;2023-07-31T06:28:36;5.10;;;2.97;;
39426;SDS011;25938;48.470;1.486;2023-07-31T06:31:02;9.52;;;2.67;;
39426;SDS011;25938;48.470;1.486;2023-07-31T06:33:28;8.98;;;3.17;;
39426;SDS011;25938;48.470;1.486;2023-07-31T06:35:54;3.70;;;2.22;;
39426;SDS011;25938;48.470;1.486;2023-07-31T06:38:24;6.03;;;2.70;;
39426;SDS011;25938;48.470;1.486;2023-07-31T06:40:50;9.13;;;3.88;;
39426;SDS011;25938;48.470;1.486;2023-07-31T06:43:16;6.28;;;2.38;;
39426;SDS011;25938;48.470;1.486;2023-07-31T06:45:42;9.43;;;3.40;;
39426;SDS011;25938;48.470;1.486;2023-07-31T06:48:09;7.35;;;2.55;;
39426;SDS011;25938;48.470;1.486;2023-07-31T06:50:35;6.95;;;2.55;;
39426;SDS011;25938;48.470;1.486;2023-07-31T06:53:02;10.32;;;3.53;;
39426;SDS011;25938;48.470;1.486;2023-07-31T06:55:28;4.03;;;2.33;;
39426;SDS011;25938;48.470;1.486;2023-07-31T06:57:54;7.85;;;2.70;;
39426;SDS011;25938;48.470;1.486;2023-07-31T07:00:21;7.03;;;3.60;;
39426;SDS011;25938;48.470;1.486;2023-07-31T07:02:48;8.30;;;3.00;;
39426;SDS011;25938;48.470;1.486;2023-07-31T07:05:14;7.15;;;2.75;;
39426;SDS011;25938;48.470;1.486;2023-07-31T07:07:41;6.68;;;2.88;;
39426;SDS011;25938;48.470;1.486;2023-07-31T07:10:07;4.18;;;2.33;;
39426;SDS011;25938;48.470;1.486;2023-07-31T07:12:33;5.30;;;2.60;;
39426;SDS011;25938;48.470;1.486;2023-07-31T07:15:00;5.97;;;2.58;;
39426;SDS011;25938;48.470;1.486;2023-07-31T07:17:27;5.88;;;2.40;;
39426;SDS011;25938;48.470;1.486;2023-07-31T07:19:54;5.40;;;2.83;;
39426;SDS011;25938;48.470;1.486;2023-07-31T07:22:21;4.65;;;2.55;;
39426;SDS011;25938;48.470;1.486;2023-07-31T07:24:47;5.63;;;3.35;;
39426;SDS011;25938;48.470;1.486;2023-07-31T07:27:13;7.90;;;2.33;;
39426;SDS011;25938;48.470;1.486;2023-07-31T07:29:39;6.20;;;2.42;;
39426;SDS011;25938;48.470;1.486;2023-07-31T07:32:05;5.60;;;2.55;;
39426;SDS011;25938;48.470;1.486;2023-07-31T07:34:32;7.47;;;2.80;;
39426;SDS011;25938;48.470;1.486;2023-07-31T07:36:57;5.40;;;2.03;;
39426;SDS011;25938;48.470;1.486;2023-07-31T07:39:23;4.82;;;1.95;;
39426;SDS011;25938;48.470;1.486;2023-07-31T07:41:50;6.05;;;2.47;;
39426;SDS011;25938;48.470;1.486;2023-07-31T07:44:16;9.07;;;2.10;;
39426;SDS011;25938;48.470;1.486;2023-07-31T07:46:42;7.38;;;2.58;;
39426;SDS011;25938;48.470;1.486;2023-07-31T07:49:08;5.45;;;2.13;;
39426;SDS011;25938;48.470;1.486;2023-07-31T07:51:34;4.45;;;2.22;;
39426;SDS011;25938;48.470;1.486;2023-07-31T07:54:00;7.28;;;2.65;;
39426;SDS011;25938;48.470;1.486;2023-07-31T07:56:26;2.58;;;2.08;;
39426;SDS011;25938;48.470;1.486;2023-07-31T07:58:53;5.28;;;2.58;;
39426;SDS011;25938;48.470;1.486;2023-07-31T08:01:19;4.03;;;2.25;;
39426;SDS011;25938;48.470;1.486;2023-07-31T08:03:45;6.78;;;2.58;;
39426;SDS011;25938;48.470;1.486;2023-07-31T08:06:11;3.88;;;2.20;;
39426;SDS011;25938;48.470;1.486;2023-07-31T08:08:38;4.38;;;1.92;;
39426;SDS011;25938;48.470;1.486;2023-07-31T08:11:04;8.43;;;2.72;;
39426;SDS011;25938;48.470;1.486;2023-07-31T08:13:30;5.85;;;3.03;;
39426;SDS011;25938;48.470;1.486;2023-07-31T08:15:56;5.43;;;2.65;;
39426;SDS011;25938;48.470;1.486;2023-07-31T08:18:22;6.53;;;2.40;;
39426;SDS011;25938;48.470;1.486;2023-07-31T08:20:48;8.10;;;2.20;;
39426;SDS011;25938;48.470;1.486;2023-07-31T08:23:14;5.22;;;2.35;;
39426;SDS011;25938;48.470;1.486;2023-07-31T08:25:40;4.72;;;2.33;;
39426;SDS011;25938;48.470;1.486;2023-07-31T08:28:06;4.38;;;2.80;;
39426;SDS011;25938;48.470;1.486;2023-07-31T08:30:32;7.95;;;2.45;;
39426;SDS011;25938;48.470;1.486;2023-07-31T08:32:58;4.07;;;2.58;;
39426;SDS011;25938;48.470;1.486;2023-07-31T08:35:25;6.38;;;2.53;;
39426;SDS011;25938;48.470;1.486;2023-07-31T08:37:53;8.60;;;4.22;;
39426;SDS011;25938;48.470;1.486;2023-07-31T08:40:19;6.40;;;2.60;;
39426;SDS011;25938;48.470;1.486;2023-07-31T08:42:47;7.72;;;2.08;;
39426;SDS011;25938;48.470;1.486;2023-07-31T08:45:14;4.22;;;2.00;;
39426;SDS011;25938;48.470;1.486;2023-07-31T11:13:32;3.20;;;1.80;;
39426;SDS011;25938;48.470;1.486;2023-07-31T11:15:58;5.35;;;2.67;;
39426;SDS011;25938;48.470;1.486;2023-07-31T11:18:25;5.18;;;2.28;;
39426;SDS011;25938;48.470;1.486;2023-07-31T11:20:52;5.60;;;2.38;;
39426;SDS011;25938;48.470;1.486;2023-07-31T11:23:19;3.90;;;1.85;;
39426;SDS011;25938;48.470;1.486;2023-07-31T11:25:45;5.03;;;2.10;;
39426;SDS011;25938;48.470;1.486;2023-07-31T11:28:12;5.18;;;2.22;;
39426;SDS011;25938;48.470;1.486;2023-07-31T11:33:12;5.07;;;2.47;;
39426;SDS011;25938;48.470;1.486;2023-07-31T11:35:46;3.65;;;2.25;;
39426;SDS011;25938;48.470;1.486;2023-07-31T11:38:22;5.20;;;2.20;;
39426;SDS011;25938;48.470;1.486;2023-07-31T11:40:49;5.10;;;2.08;;
39426;SDS011;25938;48.470;1.486;2023-07-31T11:43:15;3.65;;;2.47;;
39426;SDS011;25938;48.470;1.486;2023-07-31T11:45:45;3.97;;;1.77;;
39426;SDS011;25938;48.470;1.486;2023-07-31T11:48:18;7.18;;;2.65;;
39426;SDS011;25938;48.470;1.486;2023-07-31T11:50:44;4.70;;;2.58;;
39426;SDS011;25938;48.470;1.486;2023-07-31T11:53:11;4.32;;;2.13;;
39426;SDS011;25938;48.470;1.486;2023-07-31T11:55:38;3.53;;;1.90;;
39426;SDS011;25938;48.470;1.486;2023-07-31T11:58:04;3.88;;;2.03;;
39426;SDS011;25938;48.470;1.486;2023-07-31T12:00:30;3.03;;;1.63;;
39426;SDS011;25938;48.470;1.486;2023-07-31T12:02:56;3.47;;;1.80;;
39426;SDS011;25938;48.470;1.486;2023-07-31T12:05:22;2.28;;;1.38;;
39426;SDS011;25938;48.470;1.486;2023-07-31T12:07:50;2.45;;;1.30;;
39426;SDS011;25938;48.470;1.486;2023-07-31T12:10:23;3.85;;;1.63;;
39426;SDS011;25938;48.470;1.486;2023-07-31T12:15:15;3.63;;;1.40;;
39426;SDS011;25938;48.470;1.486;2023-07-31T12:17:41;3.40;;;1.80;;
39426;SDS011;25938;48.470;1.486;2023-07-31T12:20:07;5.13;;;1.73;;
39426;SDS011;25938;48.470;1.486;2023-07-31T12:22:34;2.72;;;1.77;;
39426;SDS011;25938;48.470;1.486;2023-07-31T12:24:59;3.33;;;1.70;;
39426;SDS011;25938;48.470;1.486;2023-07-31T12:27:32;4.18;;;1.40;;
39426;SDS011;25938;48.470;1.486;2023-07-31T12:29:59;1.75;;;1.13;;
39426;SDS011;25938;48.470;1.486;2023-07-31T12:32:25;2.97;;;1.20;;
39426;SDS011;25938;48.470;1.486;2023-07-31T12:34:53;3.47;;;1.40;;
39426;SDS011;25938;48.470;1.486;2023-07-31T12:37:20;2.65;;;1.48;;
39426;SDS011;25938;48.470;1.486;2023-07-31T12:39:46;2.30;;;1.40;;
39426;SDS011;25938;48.470;1.486;2023-07-31T12:42:12;2.85;;;1.40;;
39426;SDS011;25938;48.470;1.486;2023-07-31T12:44:38;2.50;;;1.35;;
39426;SDS011;25938;48.470;1.486;2023-07-31T12:47:05;2.15;;;1.45;;
39426;SDS011;25938;48.470;1.486;2023-07-31T12:49:31;3.00;;;1.60;;
39426;SDS011;25938;48.470;1.486;2023-07-31T12:51:57;3.13;;;1.60;;
39426;SDS011;25938;48.470;1.486;2023-07-31T12:54:23;2.38;;;1.70;;
39426;SDS011;25938;48.470;1.486;2023-07-31T12:56:49;3.47;;;1.40;;
39426;SDS011;25938;48.470;1.486;2023-07-31T12:59:15;3.35;;;2.03;;
39426;SDS011;25938;48.470;1.486;2023-07-31T13:01:41;2.25;;;1.52;;
39426;SDS011;25938;48.470;1.486;2023-07-31T13:04:07;3.30;;;1.48;;
39426;SDS011;25938;48.470;1.486;2023-07-31T13:06:33;3.67;;;1.77;;
39426;SDS011;25938;48.470;1.486;2023-07-31T13:08:59;3.13;;;2.47;;
39426;SDS011;25938;48.470;1.486;2023-07-31T13:11:25;3.75;;;1.60;;
39426;SDS011;25938;48.470;1.486;2023-07-31T13:13:51;4.10;;;1.50;;
39426;SDS011;25938;48.470;1.486;2023-07-31T13:16:17;3.22;;;1.20;;
39426;SDS011;25938;48.470;1.486;2023-07-31T13:18:43;4.28;;;3.35;;
39426;SDS011;25938;48.470;1.486;2023-07-31T13:21:09;4.60;;;1.35;;
39426;SDS011;25938;48.470;1.486;2023-07-31T13:23:35;3.58;;;1.90;;
39426;SDS011;25938;48.470;1.486;2023-07-31T13:26:01;2.30;;;2.08;;
39426;SDS011;25938;48.470;1.486;2023-07-31T13:28:27;4.00;;;1.73;;
39426;SDS011;25938;48.470;1.486;2023-07-31T13:30:53;8.10;;;2.33;;
39426;SDS011;25938;48.470;1.486;2023-07-31T13:33:19;4.35;;;2.00;;
39426;SDS011;25938;48.470;1.486;2023-07-31T13:35:45;6.70;;;2.17;;
39426;SDS011;25938;48.470;1.486;2023-07-31T13:38:11;4.53;;;1.85;;
39426;SDS011;25938;48.470;1.486;2023-07-31T13:40:37;4.50;;;1.60;;
39426;SDS011;25938;48.470;1.486;2023-07-31T13:43:03;4.35;;;1.52;;
39426;SDS011;25938;48.470;1.486;2023-07-31T13:45:29;4.93;;;1.75;;
39426;SDS011;25938;48.470;1.486;2023-07-31T13:47:55;3.63;;;1.63;;
39426;SDS011;25938;48.470;1.486;2023-07-31T13:50:21;5.07;;;2.03;;
39426;SDS011;25938;48.470;1.486;2023-07-31T13:52:47;4.53;;;1.85;;
39426;SDS011;25938;48.470;1.486;2023-07-31T13:55:13;3.75;;;0.85;;
39426;SDS011;25938;48.470;1.486;2023-07-31T13:57:39;1.85;;;1.33;;
39426;SDS011;25938;48.470;1.486;2023-07-31T14:00:05;2.78;;;1.50;;
39426;SDS011;25938;48.470;1.486;2023-07-31T14:02:31;2.97;;;1.30;;
39426;SDS011;25938;48.470;1.486;2023-07-31T14:04:57;2.60;;;1.45;;
39426;SDS011;25938;48.470;1.486;2023-07-31T14:07:23;1.85;;;0.85;;
39426;SDS011;25938;48.470;1.486;2023-07-31T14:09:50;4.95;;;1.30;;
39426;SDS011;25938;48.470;1.486;2023-07-31T14:12:15;3.10;;;1.23;;
39426;SDS011;25938;48.470;1.486;2023-07-31T14:14:41;2.50;;;1.10;;
39426;SDS011;25938;48.470;1.486;2023-07-31T14:17:07;2.40;;;1.48;;
39426;SDS011;25938;48.470;1.486;2023-07-31T14:19:33;4.05;;;1.20;;
39426;SDS011;25938;48.470;1.486;2023-07-31T14:21:59;2.42;;;1.77;;
39426;SDS011;25938;48.470;1.486;2023-07-31T14:24:25;2.50;;;1.40;;
39426;SDS011;25938;48.470;1.486;2023-07-31T14:26:51;2.05;;;1.42;;
39426;SDS011;25938;48.470;1.486;2023-07-31T14:29:17;3.75;;;1.63;;
39426;SDS011;25938;48.470;1.486;2023-07-31T14:31:43;2.22;;;1.42;;
39426;SDS011;25938;48.470;1.486;2023-07-31T14:34:09;2.75;;;1.60;;
39426;SDS011;25938;48.470;1.486;2023-07-31T14:36:35;3.13;;;1.67;;
39426;SDS011;25938;48.470;1.486;2023-07-31T14:39:01;2.60;;;2.05;;
39426;SDS011;25938;48.470;1.486;2023-07-31T14:41:27;2.17;;;1.17;;
39426;SDS011;25938;48.470;1.486;2023-07-31T14:43:53;1.52;;;1.20;;
39426;SDS011;25938;48.470;1.486;2023-07-31T14:46:19;3.00;;;1.42;;
39426;SDS011;25938;48.470;1.486;2023-07-31T14:48:45;3.42;;;1.75;;
39426;SDS011;25938;48.470;1.486;2023-07-31T14:51:11;2.42;;;1.50;;
39426;SDS011;25938;48.470;1.486;2023-07-31T14:53:39;4.03;;;1.60;;
39426;SDS011;25938;48.470;1.486;2023-07-31T14:56:05;3.45;;;1.85;;
39426;SDS011;25938;48.470;1.486;2023-07-31T14:58:31;3.15;;;1.50;;
39426;SDS011;25938;48.470;1.486;2023-07-31T15:00:57;1.55;;;1.35;;
39426;SDS011;25938;48.470;1.486;2023-07-31T15:03:23;3.30;;;1.30;;
39426;SDS011;25938;48.470;1.486;2023-07-31T15:05:50;2.10;;;0.95;;
39426;SDS011;25938;48.470;1.486;2023-07-31T15:08:16;3.38;;;1.80;;
39426;SDS011;25938;48.470;1.486;2023-07-31T15:10:42;1.65;;;1.17;;
39426;SDS011;25938;48.470;1.486;2023-07-31T15:13:08;2.95;;;1.50;;
39426;SDS011;25938;48.470;1.486;2023-07-31T15:15:34;2.60;;;1.05;;
39426;SDS011;25938;48.470;1.486;2023-07-31T15:18:00;3.10;;;1.00;;
39426;SDS011;25938;48.470;1.486;2023-07-31T15:20:26;1.58;;;1.20;;
39426;SDS011;25938;48.470;1.486;2023-07-31T15:22:52;2.13;;;1.10;;
39426;SDS011;25938;48.470;1.486;2023-07-31T15:25:18;2.72;;;1.13;;
39426;SDS011;25938;48.470;1.486;2023-07-31T15:27:44;2.17;;;1.42;;
39426;SDS011;25938;48.470;1.486;2023-07-31T15:30:10;1.42;;;1.13;;
39426;SDS011;25938;48.470;1.486;2023-07-31T15:32:37;1.48;;;1.10;;
39426;SDS011;25938;48.470;1.486;2023-07-31T15:35:03;2.35;;;1.40;;
39426;SDS011;25938;48.470;1.486;2023-07-31T15:37:29;3.47;;;1.23;;
39426;SDS011;25938;48.470;1.486;2023-07-31T15:39:55;2.38;;;1.45;;
39426;SDS011;25938;48.470;1.486;2023-07-31T15:42:21;1.42;;;1.23;;
39426;SDS011;25938;48.470;1.486;2023-07-31T15:44:47;1.85;;;1.05;;
39426;SDS011;25938;48.470;1.486;2023-07-31T15:47:13;2.85;;;1.23;;
39426;SDS011;25938;48.470;1.486;2023-07-31T15:49:39;2.50;;;1.48;;
39426;SDS011;25938;48.470;1.486;2023-07-31T15:52:05;1.60;;;1.50;;
39426;SDS011;25938;48.470;1.486;2023-07-31T15:54:32;1.98;;;1.08;;
39426;SDS011;25938;48.470;1.486;2023-07-31T15:56:58;3.13;;;1.40;;
39426;SDS011;25938;48.470;1.486;2023-07-31T15:59:24;1.52;;;1.38;;
39426;SDS011;25938;48.470;1.486;2023-07-31T16:01:50;2.97;;;1.33;;
39426;SDS011;25938;48.470;1.486;2023-07-31T16:04:16;4.10;;;1.25;;
39426;SDS011;25938;48.470;1.486;2023-07-31T16:06:42;1.42;;;1.27;;
39426;SDS011;25938;48.470;1.486;2023-07-31T16:09:08;3.55;;;1.33;;
39426;SDS011;25938;48.470;1.486;2023-07-31T16:11:34;3.50;;;1.20;;
39426;SDS011;25938;48.470;1.486;2023-07-31T16:14:00;2.47;;;1.40;;
39426;SDS011;25938;48.470;1.486;2023-07-31T16:16:27;1.80;;;1.58;;
39426;SDS011;25938;48.470;1.486;2023-07-31T16:18:53;3.58;;;1.50;;
39426;SDS011;25938;48.470;1.486;2023-07-31T16:21:19;5.40;;;1.95;;
39426;SDS011;25938;48.470;1.486;2023-07-31T16:23:45;4.53;;;2.10;;
39426;SDS011;25938;48.470;1.486;2023-07-31T16:26:11;3.33;;;1.90;;
39426;SDS011;25938;48.470;1.486;2023-07-31T16:28:37;4.80;;;1.70;;
39426;SDS011;25938;48.470;1.486;2023-07-31T16:31:03;2.00;;;1.67;;
39426;SDS011;25938;48.470;1.486;2023-07-31T16:33:29;5.25;;;2.15;;
39426;SDS011;25938;48.470;1.486;2023-07-31T16:35:58;3.65;;;1.73;;
39426;SDS011;25938;48.470;1.486;2023-07-31T16:38:24;3.13;;;1.90;;
39426;SDS011;25938;48.470;1.486;2023-07-31T16:40:49;4.05;;;2.10;;
39426;SDS011;25938;48.470;1.486;2023-07-31T16:43:15;4.65;;;2.15;;
39426;SDS011;25938;48.470;1.486;2023-07-31T16:45:41;3.95;;;1.75;;
39426;SDS011;25938;48.470;1.486;2023-07-31T16:48:07;4.68;;;2.25;;
39426;SDS011;25938;48.470;1.486;2023-07-31T16:50:33;2.67;;;1.80;;
39426;SDS011;25938;48.470;1.486;2023-07-31T16:52:59;2.03;;;1.75;;
39426;SDS011;25938;48.470;1.486;2023-07-31T16:55:25;3.15;;;2.38;;
39426;SDS011;25938;48.470;1.486;2023-07-31T16:57:52;3.70;;;2.20;;
39426;SDS011;25938;48.470;1.486;2023-07-31T17:00:20;3.83;;;2.03;;
39426;SDS011;25938;48.470;1.486;2023-07-31T17:02:46;4.32;;;2.28;;
39426;SDS011;25938;48.470;1.486;2023-07-31T17:05:13;4.55;;;2.58;;
39426;SDS011;25938;48.470;1.486;2023-07-31T17:07:38;3.47;;;2.58;;
39426;SDS011;25938;48.470;1.486;2023-07-31T17:10:05;2.92;;;2.00;;
39426;SDS011;25938;48.470;1.486;2023-07-31T17:12:31;5.43;;;2.00;;
39426;SDS011;25938;48.470;1.486;2023-07-31T17:14:57;4.95;;;2.40;;
39426;SDS011;25938;48.470;1.486;2023-07-31T17:17:23;4.25;;;2.05;;
39426;SDS011;25938;48.470;1.486;2023-07-31T17:19:49;3.13;;;2.22;;
39426;SDS011;25938;48.470;1.486;2023-07-31T17:22:15;3.10;;;2.38;;